Time;durP1;ratioP1;P1;durP2;ratioP2;P2;SDS_P1;SDS_P2;PMS_P1;PMS_P2;Temp;Humidity;BMP_temperature;BMP_pressure;BME280_temperature;BME280_humidity;BME280_pressure;Samples;Min_cycle;Max_cycle;Signal;HPM_P1;HPM_P2
2023/05/19 00:01:13;;;;;;;;;2.67;2.33;;;;;22.51;32.58;102436.75;6303654;22;45194;-75
2023/05/19 00:03:52;;;;;;;;;3.00;2.00;;;;;22.49;32.46;102439.56;6304285;22;45294;-75
2023/05/19 00:06:26;;;;;;;;;1.67;1.67;;;;;22.50;32.64;102435.09;6303557;22;47157;-76
2023/05/19 00:08:56;;;;;;;;;1.00;1.00;;;;;22.48;32.90;102432.56;6303653;22;45288;-75
2023/05/19 00:11:23;;;;;;;;;3.00;2.67;;;;;22.43;32.77;102429.50;6303932;22;45151;-75
2023/05/19 00:13:49;;;;;;;;;2.33;2.33;;;;;22.49;32.98;102430.75;6303465;22;45487;-75
2023/05/19 00:16:15;;;;;;;;;3.00;2.00;;;;;22.48;32.75;102424.59;6303386;22;45394;-75
2023/05/19 00:18:42;;;;;;;;;3.00;2.00;;;;;22.36;32.87;102402.75;6303524;22;45292;-76
2023/05/19 00:21:07;;;;;;;;;2.00;2.00;;;;;22.38;32.95;102400.78;6304416;22;45324;-74
2023/05/19 00:23:33;;;;;;;;;1.67;1.67;;;;;22.41;32.79;102402.31;6304045;22;45266;-75
2023/05/19 00:25:58;;;;;;;;;1.00;1.00;;;;;22.24;32.69;102383.53;6303308;22;55677;-75
2023/05/19 00:28:23;;;;;;;;;3.00;2.00;;;;;22.46;33.14;102417.78;6305694;22;45284;-75
2023/05/19 00:30:50;;;;;;;;;2.67;2.00;;;;;22.36;32.51;102399.25;6305219;22;45280;-75
2023/05/19 00:33:15;;;;;;;;;2.00;2.00;;;;;22.17;32.80;102377.94;6305262;22;45424;-75
2023/05/19 00:35:40;;;;;;;;;5.00;2.00;;;;;22.43;32.87;102410.13;6305261;22;45245;-75
2023/05/19 00:38:06;;;;;;;;;2.33;1.00;;;;;22.39;33.08;102413.06;6305217;22;45165;-75
2023/05/19 00:40:35;;;;;;;;;4.00;2.67;;;;;22.46;32.46;102428.38;6305655;22;45233;-75
2023/05/19 00:43:00;;;;;;;;;2.67;1.67;;;;;22.40;33.07;102412.06;6305600;22;45345;-75
2023/05/19 00:45:26;;;;;;;;;0.00;0.00;;;;;22.43;32.44;102407.47;6304526;22;46203;-75
2023/05/19 00:47:51;;;;;;;;;3.00;1.00;;;;;22.37;33.00;102395.63;6304969;22;45642;-75
2023/05/19 00:50:17;;;;;;;;;3.67;2.00;;;;;22.44;32.59;102409.97;6305507;22;45346;-75
2023/05/19 00:52:42;;;;;;;;;2.00;2.00;;;;;22.34;32.69;102394.09;6305175;22;45348;-75
2023/05/19 00:55:08;;;;;;;;;1.67;1.00;;;;;22.31;32.97;102382.94;6303241;22;46965;-75
2023/05/19 00:57:34;;;;;;;;;3.00;1.67;;;;;22.42;33.04;102406.63;6305007;22;45181;-75
2023/05/19 00:59:59;;;;;;;;;2.00;2.00;;;;;22.35;32.81;102394.94;6305196;22;45236;-74
2023/05/19 01:02:25;;;;;;;;;3.67;3.33;;;;;22.39;32.41;102402.47;6303511;22;45439;-76
2023/05/19 01:04:52;;;;;;;;;3.00;3.00;;;;;22.32;32.67;102396.06;6305186;22;45209;-75
2023/05/19 01:07:18;;;;;;;;;4.00;2.67;;;;;22.42;32.54;102408.44;6305002;22;45204;-75
2023/05/19 01:09:45;;;;;;;;;2.00;1.00;;;;;22.39;32.41;102402.47;6305199;22;45372;-75
2023/05/19 01:12:11;;;;;;;;;4.00;1.00;;;;;22.34;32.78;102393.25;6304651;22;45329;-77
2023/05/19 01:14:36;;;;;;;;;1.00;1.00;;;;;22.45;32.46;102410.81;6305143;22;45804;-75
2023/05/19 01:17:21;;;;;;;;;2.00;1.00;;;;;22.46;32.48;102412.47;6304858;22;45290;-75
2023/05/19 01:20:09;;;;;;;;;2.67;2.00;;;;;22.46;32.29;102417.78;6305047;22;45391;-75
2023/05/19 01:22:47;;;;;;;;;3.00;0.67;;;;;22.47;32.87;102420.31;6304869;22;45244;-75
2023/05/19 01:25:21;;;;;;;;;2.00;2.00;;;;;22.48;32.83;102413.19;6304563;22;46992;-75
2023/05/19 01:27:52;;;;;;;;;2.00;2.00;;;;;22.46;32.68;102408.00;6304335;22;45277;-75
2023/05/19 01:30:25;;;;;;;;;2.00;2.00;;;;;22.47;32.57;102409.69;6305325;22;45316;-76
2023/05/19 01:32:53;;;;;;;;;1.67;1.67;;;;;22.43;32.37;102397.69;6303138;22;45459;-75
2023/05/19 01:35:22;;;;;;;;;3.00;2.00;;;;;22.47;32.78;102409.69;6305049;22;45290;-76
2023/05/19 01:37:51;;;;;;;;;2.33;2.33;;;;;22.37;32.67;102382.38;6304232;22;45273;-75
2023/05/19 01:40:18;;;;;;;;;4.00;2.00;;;;;22.36;32.66;102386.81;6305316;22;45402;-75
2023/05/19 01:42:45;;;;;;;;;6.00;3.00;;;;;22.35;32.84;102379.84;6304347;22;45254;-75
2023/05/19 01:45:11;;;;;;;;;1.33;1.33;;;;;22.46;32.67;102399.22;6302888;22;46704;-76
2023/05/19 01:47:40;;;;;;;;;3.33;2.67;;;;;22.45;32.02;102398.41;6305191;22;45225;-75
2023/05/19 01:50:06;;;;;;;;;3.00;3.00;;;;;22.37;32.32;102390.31;6304919;22;45360;-75
2023/05/19 01:52:32;;;;;;;;;2.33;2.00;;;;;22.43;32.27;102400.34;6304506;22;45332;-75
2023/05/19 01:54:57;;;;;;;;;2.00;1.67;;;;;22.37;32.56;102396.47;6302991;22;48041;-75
2023/05/19 01:57:41;;;;;;;;;3.33;2.00;;;;;22.43;32.62;102399.53;6304783;22;45312;-74
2023/05/19 02:00:07;;;;;;;;;4.00;2.33;;;;;22.40;32.24;102405.94;6304939;22;45292;-75
2023/05/19 02:02:35;;;;;;;;;2.00;2.00;;;;;22.41;32.33;102394.34;6305104;22;45361;-75
2023/05/19 02:05:11;;;;;;;;;3.00;3.00;;;;;22.10;32.47;102347.69;6304873;22;46083;-75
2023/05/19 02:07:51;;;;;;;;;3.00;2.00;;;;;22.29;32.51;102383.09;6302941;22;45257;-76
2023/05/19 02:10:29;;;;;;;;;2.67;2.67;;;;;22.32;32.16;102388.13;6304442;22;45305;-75
2023/05/19 02:12:59;;;;;;;;;4.33;3.00;;;;;22.38;32.59;102392.81;6304485;22;45514;-75
2023/05/19 02:15:28;;;;;;;;;2.33;1.67;;;;;22.18;32.25;102366.38;6302807;22;45943;-75
2023/05/19 02:17:56;;;;;;;;;1.00;1.00;;;;;22.29;32.20;102378.63;6304600;22;45229;-75
2023/05/19 02:20:22;;;;;;;;;1.00;1.00;;;;;22.36;32.59;102392.13;6304875;22;45232;-75
2023/05/19 02:22:47;;;;;;;;;2.00;2.00;;;;;22.34;32.50;102395.91;6304748;22;45163;-75
2023/05/19 02:25:13;;;;;;;;;2.67;2.67;;;;;22.32;32.60;102387.28;6304006;22;46956;-75
2023/05/19 02:27:39;;;;;;;;;3.67;2.33;;;;;22.36;32.49;102391.28;6304942;22;45408;-76
2023/05/19 02:30:05;;;;;;;;;2.33;1.00;;;;;22.25;31.98;102373.78;6304734;22;45366;-75
2023/05/19 02:32:31;;;;;;;;;3.00;3.00;;;;;22.27;32.25;102372.66;6302932;22;45313;-76
2023/05/19 02:34:57;;;;;;;;;1.00;1.00;;;;;22.21;32.57;102370.56;6304694;22;46234;-75
2023/05/19 02:37:24;;;;;;;;;4.00;2.67;;;;;22.37;32.65;102395.63;6304669;22;47219;-75
2023/05/19 02:39:49;;;;;;;;;2.00;2.00;;;;;22.33;32.67;102381.81;6304314;22;45249;-75
2023/05/19 02:42:17;;;;;;;;;2.67;2.00;;;;;22.38;32.77;102389.31;6304473;22;45240;-75
2023/05/19 02:44:42;;;;;;;;;2.33;2.00;;;;;22.39;32.55;102388.34;6304370;22;47015;-75
2023/05/19 02:47:08;;;;;;;;;3.00;3.00;;;;;22.29;32.09;102365.38;6304935;22;45791;-75
2023/05/19 02:49:36;;;;;;;;;4.33;2.00;;;;;22.33;31.99;102378.34;6305052;22;45489;-75
2023/05/19 02:52:02;;;;;;;;;4.00;2.50;;;;;22.40;32.01;102385.53;6304399;22;45340;-76
2023/05/19 02:54:29;;;;;;;;;2.67;2.00;;;;;22.28;32.64;102371.66;6303712;22;47090;-76
2023/05/19 02:56:55;;;;;;;;;2.00;2.00;;;;;22.35;32.03;102371.88;6304342;22;45234;-75
2023/05/19 02:59:20;;;;;;;;;3.33;2.00;;;;;22.36;32.55;102375.38;6304586;22;45159;-75
2023/05/19 03:01:46;;;;;;;;;4.33;2.67;;;;;22.43;32.23;102379.13;6304848;22;45161;-75
2023/05/19 03:04:12;;;;;;;;;2.33;2.00;;;;;22.41;32.11;102381.09;6304305;22;47137;-75
2023/05/19 03:06:38;;;;;;;;;2.00;2.00;;;;;22.37;32.36;102379.72;6304765;22;45533;-75
2023/05/19 03:09:03;;;;;;;;;3.50;2.25;;;;;22.39;32.16;102377.75;6304125;22;45520;-76
2023/05/19 03:11:29;;;;;;;;;2.00;2.00;;;;;22.23;32.46;102359.78;6304425;22;45383;-75
2023/05/19 03:13:55;;;;;;;;;3.00;3.00;;;;;22.33;32.39;102387.13;6304083;22;47054;-76
2023/05/19 03:16:20;;;;;;;;;2.00;2.00;;;;;22.27;32.04;102371.81;6304494;22;45357;-75
2023/05/19 03:18:46;;;;;;;;;4.33;3.00;;;;;22.36;31.94;102386.81;6304363;22;45267;-75
2023/05/19 03:21:11;;;;;;;;;5.33;4.00;;;;;22.13;32.63;102346.56;6304671;22;45375;-76
2023/05/19 03:23:37;;;;;;;;;2.00;2.00;;;;;22.23;32.44;102357.97;6303609;22;46066;-75
2023/05/19 03:26:03;;;;;;;;;3.33;2.00;;;;;22.34;31.83;102382.66;6304068;22;46317;-75
2023/05/19 03:28:28;;;;;;;;;4.00;3.25;;;;;22.24;32.26;102364.97;6304376;22;45296;-76
2023/05/19 03:30:53;;;;;;;;;2.67;2.67;;;;;22.20;32.17;102360.09;6304044;22;45443;-76
2023/05/19 03:33:19;;;;;;;;;3.50;2.00;;;;;22.34;32.29;102383.50;6303854;22;45894;-76
2023/05/19 03:35:44;;;;;;;;;2.33;2.33;;;;;22.34;32.35;102382.66;6304436;22;45249;-75
2023/05/19 03:38:10;;;;;;;;;4.67;2.00;;;;;22.22;31.82;102360.78;6304241;22;45209;-76
2023/05/19 03:40:35;;;;;;;;;3.00;2.00;;;;;22.15;32.14;102352.56;6304678;22;45229;-75
2023/05/19 03:43:00;;;;;;;;;4.00;2.00;;;;;22.32;31.94;102382.81;6303609;22;45969;-75
2023/05/19 03:45:26;;;;;;;;;2.33;2.33;;;;;22.33;32.01;102388.94;6304502;22;45183;-75
2023/05/19 03:47:51;;;;;;;;;4.00;2.33;;;;;22.25;32.17;102381.72;6303917;22;45158;-75
2023/05/19 03:50:17;;;;;;;;;2.33;2.33;;;;;22.21;32.35;102375.00;6304605;22;45410;-75
2023/05/19 03:52:45;;;;;;;;;2.00;2.00;;;;;22.18;32.50;102370.84;6303271;22;47235;-75
2023/05/19 03:55:11;;;;;;;;;2.33;2.33;;;;;22.30;31.86;102387.44;6303731;22;45309;-75
2023/05/19 03:57:36;;;;;;;;;1.67;1.33;;;;;22.23;31.80;102379.19;6304344;22;45340;-75
2023/05/19 04:00:04;;;;;;;;;3.33;2.00;;;;;22.21;31.92;102378.50;6304075;22;45427;-76
2023/05/19 04:02:30;;;;;;;;;2.00;2.00;;;;;22.32;32.20;102389.91;6305009;22;46369;-76
2023/05/19 04:04:56;;;;;;;;;3.00;3.00;;;;;22.32;31.82;102385.47;6304936;22;45193;-75
2023/05/19 04:07:22;;;;;;;;;2.00;2.00;;;;;22.28;32.01;102384.91;6304961;22;45255;-75
2023/05/19 04:09:48;;;;;;;;;3.00;3.00;;;;;22.26;32.38;102375.41;6305546;22;45352;-75
2023/05/19 04:12:14;;;;;;;;;3.33;3.33;;;;;22.29;32.29;102378.63;6305309;22;45409;-76
2023/05/19 04:14:39;;;;;;;;;2.00;2.00;;;;;22.26;32.18;102370.97;6305013;22;45348;-75
2023/05/19 04:17:04;;;;;;;;;4.00;2.00;;;;;22.21;32.12;102367.91;6305852;22;45241;-75
2023/05/19 04:19:30;;;;;;;;;2.00;2.00;;;;;22.25;32.43;102377.22;6305134;22;45391;-75
2023/05/19 04:21:55;;;;;;;;;2.33;2.33;;;;;22.24;32.33;102378.22;6305135;22;45294;-77
2023/05/19 04:24:21;;;;;;;;;3.00;3.00;;;;;22.35;31.68;102403.72;6305000;22;45347;-76
2023/05/19 04:26:46;;;;;;;;;4.00;4.00;;;;;22.34;31.79;102399.41;6305758;22;45523;-75
2023/05/19 04:29:16;;;;;;;;;2.33;1.33;;;;;22.24;31.78;102385.34;6305224;22;45312;-76
2023/05/19 04:31:43;;;;;;;;;2.00;2.00;;;;;22.25;31.44;102382.53;6303297;22;48065;-76
2023/05/19 04:34:08;;;;;;;;;2.67;2.33;;;;;22.35;31.71;102397.59;6304921;22;45218;-75
2023/05/19 04:36:34;;;;;;;;;3.00;3.00;;;;;22.35;31.76;102403.72;6303171;22;45303;-75
2023/05/19 04:39:05;;;;;;;;;3.00;3.00;;;;;22.24;31.65;102385.34;6303584;22;45382;-76
2023/05/19 04:41:32;;;;;;;;;3.00;2.00;;;;;22.14;31.58;102375.59;6304992;22;47060;-75
2023/05/19 04:43:58;;;;;;;;;2.00;2.00;;;;;22.34;32.14;102406.50;6304987;22;45299;-76
2023/05/19 04:46:24;;;;;;;;;5.33;2.67;;;;;22.34;32.08;102409.16;6305465;22;45429;-75
2023/05/19 04:48:50;;;;;;;;;2.33;2.33;;;;;22.29;32.00;102406.94;6305073;22;45337;-75
2023/05/19 04:51:16;;;;;;;;;2.67;2.67;;;;;22.26;32.01;102409.88;6304527;22;47025;-75
2023/05/19 04:53:42;;;;;;;;;3.67;2.33;;;;;22.32;31.66;102411.97;6304902;22;45394;-75
2023/05/19 04:56:08;;;;;;;;;3.67;3.00;;;;;22.32;31.86;102413.78;6304991;22;45390;-75
2023/05/19 04:58:34;;;;;;;;;2.33;2.33;;;;;22.24;32.13;102401.25;6305470;22;45232;-75
2023/05/19 05:00:59;;;;;;;;;3.67;2.67;;;;;22.28;32.08;102402.63;6304594;22;46249;-75
2023/05/19 05:03:25;;;;;;;;;2.00;2.00;;;;;22.18;31.68;102397.34;6305584;22;45248;-76
2023/05/19 05:05:51;;;;;;;;;3.00;3.00;;;;;22.31;32.12;102420.91;6304625;22;45190;-75
2023/05/19 05:08:21;;;;;;;;;3.33;3.33;;;;;22.30;31.71;102421.91;6304988;22;45215;-75
2023/05/19 05:10:49;;;;;;;;;3.50;3.50;;;;;22.28;31.54;102415.88;6304836;22;46136;-75
2023/05/19 05:13:15;;;;;;;;;4.33;3.67;;;;;22.31;31.55;102415.59;6304633;22;45257;-75
2023/05/19 05:15:40;;;;;;;;;4.00;3.00;;;;;22.14;32.03;102388.88;6304907;22;45190;-76
2023/05/19 05:18:06;;;;;;;;;3.67;3.67;;;;;22.22;31.48;102398.75;6305200;22;45370;-77
2023/05/19 05:20:32;;;;;;;;;3.00;3.00;;;;;22.29;31.68;102414.91;6304417;22;46969;-76
2023/05/19 05:22:57;;;;;;;;;6.50;3.50;;;;;22.28;32.11;102408.75;6304985;22;45188;-76
2023/05/19 05:25:23;;;;;;;;;3.00;3.00;;;;;22.28;32.15;102406.13;6305084;22;45234;-77
2023/05/19 05:27:48;;;;;;;;;3.00;3.00;;;;;22.32;31.79;102409.31;6305396;22;45289;-76
2023/05/19 05:30:14;;;;;;;;;2.00;2.00;;;;;22.32;32.19;102419.09;6305330;22;45756;-76
2023/05/19 05:32:39;;;;;;;;;5.00;3.00;;;;;22.29;31.67;102410.44;6304825;22;45353;-75
2023/05/19 05:35:05;;;;;;;;;3.00;3.00;;;;;22.33;31.76;102413.63;6304680;22;45361;-76
2023/05/19 05:37:30;;;;;;;;;5.00;3.67;;;;;22.34;31.89;102417.97;6303439;22;45509;-77
2023/05/19 05:39:56;;;;;;;;;5.67;2.67;;;;;22.32;31.79;102405.84;6304777;22;46157;-75
2023/05/19 05:42:21;;;;;;;;;8.50;4.00;;;;;22.36;32.15;102415.16;6305165;22;45316;-76
2023/05/19 05:44:46;;;;;;;;;2.00;2.00;;;;;22.30;31.65;102411.28;6304940;22;45330;-75
2023/05/19 05:47:12;;;;;;;;;3.00;2.00;;;;;22.27;32.02;102406.28;6304647;22;45445;-76
2023/05/19 05:49:39;;;;;;;;;1.67;1.67;;;;;22.38;31.76;102419.34;6302571;22;48204;-76
2023/05/19 05:52:06;;;;;;;;;4.00;3.25;;;;;22.40;31.73;102424.50;6304697;22;45275;-76
2023/05/19 05:54:32;;;;;;;;;3.33;3.00;;;;;22.37;32.21;102415.03;6304976;22;45206;-77
2023/05/19 05:56:58;;;;;;;;;4.67;2.00;;;;;22.44;31.76;102411.78;6305052;22;45242;-75
2023/05/19 05:59:23;;;;;;;;;2.33;2.00;;;;;22.41;31.68;102410.25;6304757;22;46294;-76
2023/05/19 06:01:49;;;;;;;;;2.33;2.00;;;;;22.43;31.61;102408.28;6304650;22;45393;-75
2023/05/19 06:04:14;;;;;;;;;3.00;3.00;;;;;22.34;31.79;102398.56;6304496;22;45474;-76
2023/05/19 06:06:39;;;;;;;;;2.00;2.00;;;;;22.40;31.94;102404.13;6305168;22;45312;-74
2023/05/19 06:09:05;;;;;;;;;6.67;3.00;;;;;22.38;31.65;102392.81;6304893;22;45249;-76
2023/05/19 06:11:31;;;;;;;;;5.00;4.00;;;;;22.45;31.72;102401.03;6303023;22;45314;-76
2023/05/19 06:13:56;;;;;;;;;2.33;2.00;;;;;22.41;31.96;102391.69;6304733;22;45270;-75
2023/05/19 06:16:21;;;;;;;;;3.00;3.00;;;;;22.44;31.80;102402.00;6304630;22;45299;-76
2023/05/19 06:18:47;;;;;;;;;6.33;3.33;;;;;22.45;32.36;102401.03;6303905;22;45979;-75
2023/05/19 06:21:12;;;;;;;;;5.25;3.75;;;;;22.47;32.27;102393.78;6304707;22;45287;-76
2023/05/19 06:23:40;;;;;;;;;1.75;1.75;;;;;22.41;32.02;102381.09;6304545;22;45374;-76
2023/05/19 06:26:05;;;;;;;;;3.25;3.00;;;;;22.50;32.31;102392.66;6305048;22;45294;-76
2023/05/19 06:28:32;;;;;;;;;3.67;3.67;;;;;22.37;32.32;102375.25;6304747;22;45249;-76
2023/05/19 06:30:58;;;;;;;;;3.00;2.00;;;;;22.51;31.91;102389.00;6304994;22;45197;-75
2023/05/19 06:33:24;;;;;;;;;2.33;2.33;;;;;22.51;31.88;102397.81;6304463;22;45402;-76
2023/05/19 06:35:49;;;;;;;;;4.00;2.00;;;;;22.34;31.84;102362.28;6304485;22;45587;-76
2023/05/19 06:38:14;;;;;;;;;3.00;3.00;;;;;22.49;31.90;102385.66;6304749;22;45656;-76
2023/05/19 06:40:40;;;;;;;;;4.33;4.00;;;;;22.55;32.01;102382.44;6305069;22;45312;-74
2023/05/19 06:43:05;;;;;;;;;4.67;4.67;;;;;22.44;32.11;102372.84;6305070;22;45360;-75
2023/05/19 06:45:30;;;;;;;;;6.50;3.50;;;;;22.53;32.14;102387.06;6304775;22;45352;-75
2023/05/19 06:47:57;;;;;;;;;2.50;2.50;;;;;22.54;32.09;102391.38;6301935;22;48033;-76
2023/05/19 06:50:22;;;;;;;;;3.75;2.25;;;;;22.58;32.02;102392.75;6304292;22;45296;-76
2023/05/19 06:52:48;;;;;;;;;4.00;1.00;;;;;22.53;32.35;102384.41;6304107;22;45262;-72
2023/05/19 06:55:13;;;;;;;;;5.00;3.75;;;;;22.60;32.41;102395.25;6304910;22;45450;-76
2023/05/19 06:57:39;;;;;;;;;1.67;0.00;;;;;22.43;32.44;102370.34;6303928;22;46019;-76
2023/05/19 07:00:08;;;;;;;;;2.67;2.00;;;;;22.61;32.31;102394.28;6304830;22;45266;-74
2023/05/19 07:02:33;;;;;;;;;3.00;3.00;;;;;22.63;32.59;102390.50;6304015;22;45215;-72
2023/05/19 07:04:59;;;;;;;;;5.25;2.25;;;;;22.66;32.53;102394.69;6302799;22;45315;-76
2023/05/19 07:07:25;;;;;;;;;4.75;3.25;;;;;22.56;32.42;102372.66;6304799;22;45789;-76
2023/05/19 07:09:50;;;;;;;;;3.75;3.25;;;;;22.64;32.31;102380.72;6304719;22;45289;-74
2023/05/19 07:12:16;;;;;;;;;6.00;4.00;;;;;22.52;32.11;102359.69;6304633;22;45861;-76
2023/05/19 07:14:41;;;;;;;;;2.75;2.75;;;;;22.54;32.55;102361.34;6304383;22;45319;-74
2023/05/19 07:17:06;;;;;;;;;2.00;2.00;;;;;22.70;32.21;102387.28;6304566;22;45216;-75
2023/05/19 07:19:32;;;;;;;;;4.00;4.00;;;;;22.68;32.18;102382.09;6304252;22;45285;-77
2023/05/19 07:21:58;;;;;;;;;2.00;2.00;;;;;22.73;32.09;102394.94;6304429;22;45319;-76
2023/05/19 07:24:23;;;;;;;;;2.00;2.00;;;;;22.67;32.37;102383.06;6304257;22;45342;-76
2023/05/19 07:26:49;;;;;;;;;3.00;3.00;;;;;22.68;32.65;102383.91;6304083;22;46077;-74
2023/05/19 07:29:14;;;;;;;;;3.00;3.00;;;;;22.74;32.24;102399.28;6304271;22;45159;-73
2023/05/19 07:31:40;;;;;;;;;4.00;3.00;;;;;22.78;32.63;102403.31;6304014;22;45311;-74
2023/05/19 07:34:05;;;;;;;;;3.00;3.00;;;;;22.79;32.65;102391.72;6304688;22;45407;-76
2023/05/19 07:36:31;;;;;;;;;4.67;3.67;;;;;22.79;32.05;102396.19;6303279;22;45933;-77
2023/05/19 07:38:56;;;;;;;;;2.00;2.00;;;;;22.80;32.56;102398.69;6304700;22;45203;-76
2023/05/19 07:41:21;;;;;;;;;3.00;3.00;;;;;22.81;32.61;102394.22;6304684;22;45198;-76
2023/05/19 07:43:47;;;;;;;;;3.67;3.67;;;;;22.70;32.32;102380.16;6303745;22;45454;-76
2023/05/19 07:46:13;;;;;;;;;4.00;2.00;;;;;22.76;32.50;102389.34;6303631;22;46030;-76
2023/05/19 07:48:38;;;;;;;;;3.00;3.00;;;;;22.70;32.62;102381.97;6304253;22;45383;-76
2023/05/19 07:51:03;;;;;;;;;3.00;2.25;;;;;22.82;32.65;102395.91;6304022;22;45237;-75
2023/05/19 07:53:29;;;;;;;;;1.25;1.25;;;;;22.79;32.67;102391.72;6304355;22;45292;-75
2023/05/19 07:55:55;;;;;;;;;4.25;3.00;;;;;22.82;31.94;102395.91;6304149;22;45321;-75
2023/05/19 07:58:20;;;;;;;;;0.00;0.00;;;;;22.71;32.29;102368.56;6303331;22;45382;-76
2023/05/19 08:00:46;;;;;;;;;4.67;3.00;;;;;22.82;32.52;102391.41;6304395;22;45468;-76
2023/05/19 08:03:11;;;;;;;;;4.00;3.00;;;;;22.83;32.42;102394.91;6302389;22;45329;-76
2023/05/19 08:05:37;;;;;;;;;4.67;4.00;;;;;22.83;31.96;102393.09;6303602;22;46862;-76
2023/05/19 08:08:03;;;;;;;;;4.00;4.00;;;;;22.84;32.08;102396.56;6304137;22;45340;-75
2023/05/19 08:10:28;;;;;;;;;5.75;3.50;;;;;22.78;32.50;102398.00;6303945;22;45317;-77
2023/05/19 08:12:53;;;;;;;;;4.33;3.00;;;;;22.78;32.68;102387.38;6303158;22;45259;-76
2023/05/19 08:15:19;;;;;;;;;7.00;3.75;;;;;22.73;32.28;102381.69;6303860;22;45965;-75
2023/05/19 08:17:44;;;;;;;;;2.00;2.00;;;;;22.79;32.51;102391.72;6304162;22;45463;-75
2023/05/19 08:20:13;;;;;;;;;3.25;3.25;;;;;22.85;32.60;102400.88;6304210;22;45215;-76
2023/05/19 08:22:39;;;;;;;;;5.00;4.00;;;;;22.85;32.18;102388.47;6304311;22;45194;-76
2023/05/19 08:25:05;;;;;;;;;3.75;3.75;;;;;22.86;32.24;102399.91;6303193;22;46941;-75
2023/05/19 08:27:31;;;;;;;;;4.25;4.00;;;;;22.78;32.42;102382.06;6303209;22;45397;-76
2023/05/19 08:29:57;;;;;;;;;4.50;4.50;;;;;22.90;32.00;102389.84;6303838;22;45293;-77
2023/05/19 08:32:22;;;;;;;;;3.00;3.00;;;;;22.85;32.21;102377.84;6303975;22;45482;-76
2023/05/19 08:34:47;;;;;;;;;3.67;3.67;;;;;22.93;32.58;102378.91;6302494;22;46183;-76
2023/05/19 08:37:13;;;;;;;;;5.00;3.00;;;;;22.81;31.97;102360.56;6303803;22;45284;-76
2023/05/19 08:39:38;;;;;;;;;3.00;3.00;;;;;22.92;31.94;102378.09;6303928;22;45272;-77
2023/05/19 08:42:06;;;;;;;;;3.00;3.00;;;;;22.96;32.19;102376.81;6303136;22;45359;-76
2023/05/19 08:44:32;;;;;;;;;5.00;3.33;;;;;22.98;31.69;102386.44;6302990;22;46168;-77
2023/05/19 08:47:01;;;;;;;;;4.50;4.50;;;;;22.99;32.04;102380.13;6304044;22;45177;-76
2023/05/19 08:49:31;;;;;;;;;1.67;1.67;;;;;22.99;31.60;102382.78;6305602;22;45257;-76
2023/05/19 08:52:08;;;;;;;;;5.67;4.67;;;;;23.00;31.77;102371.22;6303390;22;45463;-76
2023/05/19 08:54:53;;;;;;;;;3.00;3.00;;;;;22.99;31.43;102386.28;6304617;22;47207;-76
2023/05/19 08:57:20;;;;;;;;;3.00;2.00;;;;;23.00;31.76;102373.84;6304535;22;45523;-76
2023/05/19 08:59:46;;;;;;;;;4.00;2.75;;;;;23.00;31.55;102381.81;6305004;22;45328;-76
2023/05/19 09:02:13;;;;;;;;;5.33;2.67;;;;;22.94;31.69;102368.16;6304937;22;45412;-76
2023/05/19 09:04:40;;;;;;;;;3.33;3.33;;;;;22.92;31.99;102364.84;6304641;22;46376;-76
2023/05/19 09:07:05;;;;;;;;;4.00;3.00;;;;;23.01;31.85;102372.84;6305308;22;45254;-76
2023/05/19 09:09:31;;;;;;;;;3.75;3.75;;;;;23.01;31.93;102378.16;6305049;22;45259;-76
2023/05/19 09:11:57;;;;;;;;;3.00;3.00;;;;;22.91;31.84;102355.19;6305018;22;45297;-75
2023/05/19 09:14:22;;;;;;;;;2.00;2.00;;;;;22.94;31.47;102365.50;6304853;22;45388;-75
2023/05/19 09:16:51;;;;;;;;;4.00;4.00;;;;;22.90;31.12;102352.69;6304791;22;45411;-76
2023/05/19 09:19:16;;;;;;;;;4.00;4.00;;;;;22.70;31.25;102320.94;6305135;22;45350;-75
2023/05/19 09:21:42;;;;;;;;;3.00;3.00;;;;;22.85;31.62;102342.50;6305010;22;45294;-75
2023/05/19 09:24:08;;;;;;;;;5.75;4.75;;;;;22.87;31.56;102347.69;6304566;22;46304;-75
2023/05/19 09:26:41;;;;;;;;;6.50;4.75;;;;;22.98;31.70;102360.72;6304232;22;45324;-76
2023/05/19 09:29:15;;;;;;;;;4.00;2.50;;;;;22.99;31.53;102349.13;6305267;22;45323;-75
2023/05/19 09:31:51;;;;;;;;;5.00;4.50;;;;;22.89;31.54;102333.28;6305002;22;45380;-75
2023/05/19 09:34:17;;;;;;;;;3.25;3.00;;;;;22.99;31.26;102349.13;6304324;22;46054;-75
2023/05/19 09:36:43;;;;;;;;;4.67;4.67;;;;;22.98;31.67;102344.78;6304573;22;45285;-75
2023/05/19 09:39:15;;;;;;;;;4.00;4.00;;;;;22.87;31.46;102321.97;6304853;22;45418;-75
2023/05/19 09:41:41;;;;;;;;;5.00;5.00;;;;;22.84;31.26;102327.59;6304392;22;45448;-76
2023/05/19 09:44:11;;;;;;;;;4.00;3.67;;;;;22.95;31.05;102345.13;6304382;22;46734;-75
2023/05/19 09:46:36;;;;;;;;;6.75;3.50;;;;;22.90;31.35;102329.63;6304986;22;45210;-75
2023/05/19 09:49:08;;;;;;;;;3.50;3.50;;;;;22.99;31.41;102330.56;6304969;22;45125;-76
2023/05/19 09:51:36;;;;;;;;;3.67;3.00;;;;;22.88;31.22;102313.00;6304854;22;45456;-76
2023/05/19 09:54:03;;;;;;;;;4.00;3.00;;;;;22.89;30.98;102305.91;6304422;22;47267;-75
2023/05/19 09:56:33;;;;;;;;;3.67;3.67;;;;;23.01;31.51;102319.78;6304146;22;45395;-75
2023/05/19 09:58:58;;;;;;;;;5.00;3.67;;;;;22.92;31.18;102293.19;6302807;22;45357;-75
2023/05/19 10:01:24;;;;;;;;;4.00;4.00;;;;;22.98;31.21;102306.81;6304647;22;45401;-76
2023/05/19 10:03:51;;;;;;;;;3.67;3.00;;;;;23.02;31.47;102316.16;6304826;22;45352;-75
2023/05/19 10:06:17;;;;;;;;;4.00;3.00;;;;;23.04;30.81;102314.16;6302841;22;45809;-76
2023/05/19 10:08:42;;;;;;;;;4.00;4.00;;;;;22.98;31.29;102301.53;6304617;22;45205;-75
2023/05/19 10:11:10;;;;;;;;;3.00;3.00;;;;;23.03;31.39;102326.59;6304732;22;45269;-76
2023/05/19 10:13:37;;;;;;;;;4.67;3.67;;;;;22.97;31.48;102292.72;6304437;22;47293;-75
2023/05/19 10:16:03;;;;;;;;;4.67;4.67;;;;;23.05;30.89;102313.19;6304697;22;45315;-76
2023/05/19 10:18:32;;;;;;;;;3.33;3.33;;;;;23.03;30.68;102302.72;6304670;22;45324;-76
2023/05/19 10:20:59;;;;;;;;;2.33;2.33;;;;;22.81;30.65;102254.41;6305064;22;45225;-76
2023/05/19 10:23:25;;;;;;;;;5.00;3.00;;;;;23.05;30.73;102314.03;6304477;22;45360;-75
2023/05/19 10:25:54;;;;;;;;;5.67;2.33;;;;;23.07;31.18;102289.97;6304436;22;45390;-75
2023/05/19 10:28:24;;;;;;;;;4.00;3.33;;;;;23.06;30.96;102296.25;6305016;22;45320;-75
2023/05/19 10:30:54;;;;;;;;;6.67;5.00;;;;;23.07;30.37;102308.56;6304651;22;45398;-75
2023/05/19 10:33:31;;;;;;;;;5.75;4.00;;;;;23.07;30.77;102301.44;6304075;22;46015;-75
2023/05/19 10:36:16;;;;;;;;;4.67;4.00;;;;;23.07;30.91;102314.72;6304291;22;45148;-76
2023/05/19 10:38:52;;;;;;;;;3.33;3.33;;;;;23.07;29.81;102311.22;6304290;22;45235;-75
2023/05/19 10:41:27;;;;;;;;;4.25;4.00;;;;;23.07;30.73;102304.09;6305109;22;45213;-75
2023/05/19 10:43:55;;;;;;;;;3.00;3.00;;;;;23.06;30.73;102299.75;6304153;22;46072;-76
2023/05/19 10:46:27;;;;;;;;;4.00;4.00;;;;;23.00;30.32;102294.22;6303849;22;45343;-74
2023/05/19 10:48:53;;;;;;;;;4.67;3.00;;;;;23.07;30.09;102317.38;6304674;22;45368;-76
2023/05/19 10:51:18;;;;;;;;;4.00;4.00;;;;;23.05;30.24;102303.41;6304836;22;45411;-75
2023/05/19 10:53:48;;;;;;;;;4.00;4.00;;;;;23.04;30.08;102293.78;6303830;22;45943;-75
2023/05/19 10:56:32;;;;;;;;;3.00;3.00;;;;;23.06;30.21;102296.25;6304438;22;45295;-75
2023/05/19 10:58:58;;;;;;;;;3.00;3.00;;;;;23.06;30.03;102296.25;6304402;22;45304;-75
2023/05/19 11:01:40;;;;;;;;;5.00;4.00;;;;;22.99;30.05;102285.44;6304565;22;45371;-76
2023/05/19 11:04:12;;;;;;;;;5.75;5.75;;;;;23.04;30.10;102290.28;6304242;22;46303;-76
2023/05/19 11:06:39;;;;;;;;;3.67;3.00;;;;;22.71;30.03;102243.03;6304648;22;45316;-75
2023/05/19 11:09:07;;;;;;;;;3.33;3.33;;;;;23.04;30.27;102290.28;6303848;22;45340;-76
2023/05/19 11:11:52;;;;;;;;;4.33;4.33;;;;;22.99;30.03;102281.94;6303216;22;45498;-75
2023/05/19 11:14:21;;;;;;;;;4.50;3.50;;;;;22.94;29.74;102269.13;6303575;22;45268;-74
2023/05/19 11:16:51;;;;;;;;;3.00;3.00;;;;;22.97;30.13;102276.78;6304134;22;45175;-75
2023/05/19 11:19:26;;;;;;;;;3.67;3.00;;;;;23.02;30.13;102286.94;6304429;22;45294;-76
2023/05/19 11:21:54;;;;;;;;;2.00;2.00;;;;;22.99;30.27;102273.97;6303729;22;45566;-76
2023/05/19 11:24:38;;;;;;;;;4.00;3.00;;;;;23.04;30.21;102280.50;6303913;22;46851;-76